Time;durP1;ratioP1;P1;durP2;ratioP2;P2;SDS_P1;SDS_P2;PMS_P1;PMS_P2;Temp;Humidity;BMP_temperature;BMP_pressure;BME280_temperature;BME280_humidity;BME280_pressure;Samples;Min_cycle;Max_cycle;Signal;HPM_P1;HPM_P2
2021/07/14 00:01:39;;;;;;;21.50;13.10;;;;;;;19.44;89.10;100651.94;5052963;28;20040;-72
2021/07/14 00:04:05;;;;;;;21.00;13.55;;;;;;;19.38;89.22;100650.94;5069448;28;20040;-72
2021/07/14 00:06:30;;;;;;;17.97;15.33;;;;;;;19.38;89.12;100654.47;5052815;28;20085;-72
2021/07/14 00:08:55;;;;;;;20.77;13.60;;;;;;;19.33;89.13;100646.19;5070574;28;20119;-72
2021/07/14 00:11:21;;;;;;;15.60;12.63;;;;;;;19.31;89.23;100648.28;5070561;28;20028;-72
2021/07/14 00:22:11;;;;;;;17.48;15.13;;;;;;;19.18;90.11;100637.63;5070317;28;20060;-72
2021/07/14 00:24:38;;;;;;;19.95;14.27;;;;;;;19.19;89.75;100641.97;5069955;28;20405;-72
2021/07/14 00:27:06;;;;;;;17.50;14.20;;;;;;;19.16;89.81;100637.81;5069037;28;20040;-72
2021/07/14 00:29:37;;;;;;;18.27;14.80;;;;;;;19.15;89.62;100630.75;5069280;28;20369;-72
2021/07/14 00:32:06;;;;;;;16.80;13.80;;;;;;;19.16;90.28;100623.47;5070297;28;20038;-72
2021/07/14 00:34:33;;;;;;;20.52;15.85;;;;;;;19.15;90.26;100632.63;5068911;28;20082;-72
2021/07/14 00:36:59;;;;;;;18.05;14.75;;;;;;;19.16;89.77;100635.13;5069934;28;20111;-72
2021/07/14 00:39:24;;;;;;;20.15;15.35;;;;;;;19.17;89.49;100638.66;5052647;28;20046;-72
2021/07/14 00:41:50;;;;;;;16.47;13.53;;;;;;;19.15;89.54;100629.91;5069740;28;20480;-72
2021/07/14 00:44:15;;;;;;;19.00;16.07;;;;;;;19.12;89.52;100638.50;5068848;28;20082;-72
2021/07/14 00:46:41;;;;;;;19.87;15.03;;;;;;;19.11;89.65;100632.25;5052063;28;20036;-72
2021/07/14 00:49:07;;;;;;;17.25;14.55;;;;;;;19.12;89.45;100635.78;5069014;28;20101;-72
2021/07/14 00:51:33;;;;;;;17.75;14.65;;;;;;;19.11;89.63;100624.13;5068922;28;20033;-72
2021/07/14 00:54:00;;;;;;;20.48;15.70;;;;;;;19.08;89.25;100621.88;5051987;28;20461;-72
2021/07/14 00:56:26;;;;;;;20.35;15.30;;;;;;;19.07;89.52;100627.50;5069772;28;20048;-72
2021/07/14 00:58:54;;;;;;;18.30;14.25;;;;;;;19.03;89.59;100626.28;5068897;28;20120;-72
2021/07/14 01:01:20;;;;;;;18.17;14.90;;;;;;;18.98;89.73;100621.53;5068794;28;20159;-72
2021/07/14 01:03:48;;;;;;;18.63;14.20;;;;;;;18.98;89.82;100630.47;5067978;28;20075;-72
2021/07/14 01:06:21;;;;;;;17.30;14.55;;;;;;;18.96;90.16;100618.22;5068260;28;20481;-72
2021/07/14 01:08:59;;;;;;;22.00;16.13;;;;;;;18.91;90.01;100616.16;5068816;28;20085;-72
2021/07/14 01:11:28;;;;;;;18.88;15.85;;;;;;;18.83;90.37;100613.75;5069890;28;20045;-72
2021/07/14 01:14:06;;;;;;;20.13;15.77;;;;;;;18.79;90.59;100614.41;5069462;28;20620;-72
2021/07/14 01:16:37;;;;;;;21.50;17.15;;;;;;;18.77;91.36;100604.63;5069531;28;20033;-72
2021/07/14 01:19:41;;;;;;;17.90;15.02;;;;;;;18.79;91.47;100607.13;5069705;28;20170;-72
2021/07/14 01:22:41;;;;;;;25.73;19.73;;;;;;;18.77;91.43;100612.75;5068458;28;20033;-71
2021/07/14 01:25:20;;;;;;;22.33;18.38;;;;;;;18.74;91.01;100615.03;5068174;28;20044;-72
2021/07/14 01:27:50;;;;;;;22.73;17.70;;;;;;;18.66;91.22;100616.16;5069355;28;20024;-72
2021/07/14 01:30:15;;;;;;;26.25;19.70;;;;;;;18.68;91.54;100619.47;5069493;28;20465;-72
2021/07/14 01:32:43;;;;;;;28.50;21.10;;;;;;;18.65;91.98;100608.25;5069315;28;20147;-71
2021/07/14 01:35:14;;;;;;;26.55;19.42;;;;;;;18.67;92.08;100609.69;5051739;28;20079;-72
2021/07/14 01:37:43;;;;;;;23.40;19.48;;;;;;;18.66;91.92;100607.19;5068272;28;20119;-72
2021/07/14 01:40:10;;;;;;;31.25;22.52;;;;;;;18.67;92.03;100603.44;5068377;28;20028;-72
2021/07/14 01:42:36;;;;;;;28.95;22.80;;;;;;;18.61;91.92;100609.72;5067718;28;20043;-71
2021/07/14 01:45:04;;;;;;;32.40;21.20;;;;;;;18.61;92.27;100604.31;5069297;28;20412;-71
2021/07/14 01:47:32;;;;;;;25.60;20.77;;;;;;;18.60;92.79;100591.84;5069170;28;20445;-72
2021/07/14 01:49:58;;;;;;;32.92;23.00;;;;;;;18.56;92.24;100578.75;5069447;28;20442;-72
2021/07/14 01:52:27;;;;;;;31.15;22.20;;;;;;;18.56;92.79;100577.94;5068321;28;20043;-71
2021/07/14 01:54:55;;;;;;;28.95;20.65;;;;;;;18.58;92.34;100577.72;5068201;28;20086;-71
2021/07/14 01:57:22;;;;;;;33.08;26.35;;;;;;;18.53;92.50;100575.69;5069065;28;20039;-72
2021/07/14 01:59:47;;;;;;;;;;;;;;;18.50;92.45;100571.53;5068768;28;20056;-71
2021/07/14 02:02:14;;;;;;;;;;;;;;;18.55;92.66;100569.00;5069780;28;20410;-72
2021/07/14 02:04:41;;;;;;;38.38;27.02;;;;;;;18.52;92.83;100561.34;5069066;28;19916;-71
2021/07/14 02:07:10;;;;;;;42.67;28.60;;;;;;;18.51;92.69;100564.25;5068061;28;20098;-71
2021/07/14 02:09:38;;;;;;;41.53;28.33;;;;;;;18.46;92.89;100567.63;5069236;28;20487;-72
2021/07/14 02:12:07;;;;;;;42.03;27.98;;;;;;;18.45;92.63;100567.81;5069099;28;20358;-71
2021/07/14 02:14:38;;;;;;;38.15;27.80;;;;;;;18.53;93.14;100570.28;5070404;28;20043;-72
2021/07/14 02:17:13;;;;;;;42.72;29.83;;;;;;;18.50;93.12;100566.13;5071676;28;20086;-71
2021/07/14 02:19:41;;;;;;;43.00;28.83;;;;;;;18.54;92.71;100566.50;5071917;28;20346;-71
2021/07/14 02:22:06;;;;;;;42.75;26.38;;;;;;;18.51;92.81;100567.78;5071433;28;20024;-71
2021/07/14 02:24:34;;;;;;;45.07;29.23;;;;;;;18.47;92.69;100577.41;5054866;28;20051;-72
2021/07/14 02:27:06;;;;;;;44.55;30.98;;;;;;;18.45;92.88;100574.06;5071213;28;20036;-71
2021/07/14 02:29:39;;;;;;;43.22;30.30;;;;;;;18.42;92.81;100574.50;5055097;28;20064;-71
2021/07/14 02:32:07;;;;;;;48.47;30.13;;;;;;;18.39;92.97;100566.84;5071426;28;20044;-71
2021/07/14 02:34:33;;;;;;;43.97;29.48;;;;;;;18.38;93.27;100564.34;5071316;28;20016;-71
2021/07/14 02:37:02;;;;;;;47.05;29.23;;;;;;;18.40;93.18;100560.38;5072141;28;20055;-71
2021/07/14 02:39:28;;;;;;;41.85;28.85;;;;;;;18.38;93.04;100565.19;5072525;28;20040;-71
2021/07/14 02:42:04;;;;;;;40.97;29.33;;;;;;;18.38;92.75;100557.09;5071621;28;20033;-71
2021/07/14 02:44:35;;;;;;;38.78;27.17;;;;;;;18.40;92.64;100554.97;5071253;28;20093;-72
2021/07/14 02:47:01;;;;;;;37.50;26.45;;;;;;;18.39;92.86;100553.31;5071001;28;20036;-71
2021/07/14 02:49:29;;;;;;;35.92;25.13;;;;;;;18.42;92.88;100555.56;5054573;28;20029;-71
2021/07/14 02:51:56;;;;;;;36.05;25.80;;;;;;;18.42;92.63;100555.56;5054248;28;20131;-72
2021/07/14 02:54:26;;;;;;;;;;;;;;;18.43;92.81;100556.44;5071384;28;20039;-71
2021/07/14 02:57:01;;;;;;;33.40;24.10;;;;;;;18.46;92.55;100559.50;5071664;28;20348;-71
2021/07/14 02:59:30;;;;;;;36.45;24.38;;;;;;;18.46;92.77;100562.22;5054309;28;20036;-71
2021/07/14 03:01:58;;;;;;;36.55;24.50;;;;;;;18.49;92.82;100553.66;5070742;28;20415;-71
2021/07/14 03:04:34;;;;;;;34.95;22.92;;;;;;;18.51;92.41;100556.97;5070704;28;20119;-72
2021/07/14 03:07:06;;;;;;;36.78;25.70;;;;;;;18.51;92.42;100556.97;5071585;28;20228;-71
2021/07/14 03:09:37;;;;;;;33.90;21.80;;;;;;;18.54;92.39;100553.00;5071870;28;20032;-72
2021/07/14 03:12:13;;;;;;;34.58;25.65;;;;;;;18.54;92.37;100553.00;5053853;28;20055;-71
2021/07/14 03:14:49;;;;;;;33.22;25.13;;;;;;;18.49;92.40;100540.13;5071633;28;20044;-72
2021/07/14 03:17:16;;;;;;;32.47;26.25;;;;;;;18.53;92.91;100554.88;5071259;28;20036;-72
2021/07/14 03:19:43;;;;;;;35.97;24.92;;;;;;;18.53;92.67;100544.06;5071970;28;20089;-71
2021/07/14 03:22:09;;;;;;;33.58;24.45;;;;;;;18.56;92.88;100535.50;5071101;28;20675;-72
2021/07/14 03:24:36;;;;;;;33.33;24.83;;;;;;;18.50;93.14;100539.09;5071354;28;20147;-72
2021/07/14 03:27:03;;;;;;;37.63;25.92;;;;;;;18.53;93.43;100544.06;5069277;28;20128;-72
2021/07/14 03:29:30;;;;;;;35.42;27.20;;;;;;;18.54;93.58;100559.25;5071324;28;20055;-71
2021/07/14 03:31:55;;;;;;;36.45;26.40;;;;;;;18.56;93.05;100559.84;5070245;28;20119;-72
2021/07/14 03:34:21;;;;;;;35.88;26.88;;;;;;;18.58;93.03;100562.31;5070166;28;20115;-71
2021/07/14 03:36:48;;;;;;;39.90;27.20;;;;;;;18.56;93.05;100567.94;5069838;28;20059;-71
2021/07/14 03:39:16;;;;;;;36.88;26.85;;;;;;;18.58;93.03;100562.31;5069978;28;20508;-71
2021/07/14 03:41:42;;;;;;;39.55;28.15;;;;;;;18.59;92.81;100574.81;5053279;28;20037;-72
2021/07/14 03:44:08;;;;;;;38.25;27.00;;;;;;;18.62;93.08;100571.66;5069714;28;20361;-71
2021/07/14 03:46:34;;;;;;;43.80;28.05;;;;;;;18.63;92.85;100570.59;5069803;28;20261;-72
2021/07/14 03:49:00;;;;;;;37.67;25.38;;;;;;;18.63;93.11;100572.47;5069861;28;20056;-72
2021/07/14 03:51:26;;;;;;;42.45;26.40;;;;;;;18.66;92.97;100563.91;5069953;28;20058;-72
2021/07/14 03:53:52;;;;;;;38.63;26.63;;;;;;;18.68;92.64;100568.09;5070705;28;20032;-72
2021/07/14 03:56:21;;;;;;;40.47;27.85;;;;;;;18.72;92.42;100569.28;5052848;28;20036;-72
2021/07/14 03:58:47;;;;;;;41.70;26.00;;;;;;;18.70;92.84;100570.56;5069700;28;20105;-71
2021/07/14 04:01:13;;;;;;;35.10;25.38;;;;;;;18.77;92.90;100571.34;5069980;28;20109;-71
2021/07/14 04:03:39;;;;;;;41.03;26.73;;;;;;;18.75;92.56;100573.41;5070515;28;20453;-72
2021/07/14 04:06:07;;;;;;;34.80;24.60;;;;;;;18.79;92.56;100581.97;5069061;28;20059;-72
2021/07/14 04:08:44;;;;;;;35.55;24.25;;;;;;;18.84;92.70;100580.25;5052866;28;20039;-72
2021/07/14 04:11:13;;;;;;;33.25;23.58;;;;;;;18.90;91.48;100587.47;5052817;28;20043;-72
2021/07/14 04:13:39;;;;;;;36.22;24.85;;;;;;;18.81;91.98;100585.28;5070303;28;20470;-72
2021/07/14 04:16:05;;;;;;;31.08;23.98;;;;;;;18.86;91.77;100591.66;5069870;28;20489;-71
2021/07/14 04:18:30;;;;;;;38.03;26.17;;;;;;;18.87;91.59;100595.19;5069095;28;20060;-72
2021/07/14 04:20:57;;;;;;;33.13;22.70;;;;;;;18.89;91.65;100588.50;5070211;28;20342;-71
2021/07/14 04:23:22;;;;;;;33.38;22.58;;;;;;;18.93;91.86;100597.84;5069284;28;20331;-72
2021/07/14 04:25:47;;;;;;;31.53;23.60;;;;;;;19.01;91.55;100588.66;5052094;28;20036;-71
2021/07/14 04:28:13;;;;;;;31.50;22.23;;;;;;;19.05;90.61;100597.94;5069150;28;20374;-72
2021/07/14 04:30:38;;;;;;;29.13;21.63;;;;;;;19.07;91.66;100598.56;5069211;28;20162;-71
2021/07/14 04:33:04;;;;;;;30.87;22.77;;;;;;;19.10;91.66;100591.88;5068821;28;20505;-72
2021/07/14 04:35:29;;;;;;;28.00;22.03;;;;;;;19.11;91.14;100586.25;5068991;28;20915;-72
2021/07/14 04:37:55;;;;;;;27.27;21.37;;;;;;;19.18;91.76;100588.91;5051276;28;20275;-72
2021/07/14 04:40:22;;;;;;;32.03;21.80;;;;;;;19.27;91.52;100586.72;5069918;28;20339;-72
2021/07/14 04:42:49;;;;;;;32.90;23.25;;;;;;;19.29;91.46;100590.03;5069910;28;20282;-72
2021/07/14 04:45:14;;;;;;;29.35;21.92;;;;;;;19.31;92.14;100590.63;5069779;28;20028;-72
2021/07/14 04:47:39;;;;;;;33.47;22.47;;;;;;;19.39;91.54;100593.88;5069609;28;20067;-72
2021/07/14 04:50:06;;;;;;;29.93;21.40;;;;;;;19.48;91.22;100598.97;5052102;28;20125;-73
2021/07/14 04:52:31;;;;;;;25.67;20.45;;;;;;;19.46;91.21;100596.53;5069666;28;20024;-72
2021/07/14 04:55:08;;;;;;;26.60;21.47;;;;;;;19.48;91.54;100616.09;5069514;28;20109;-72
2021/07/14 04:57:34;;;;;;;29.50;23.05;;;;;;;19.35;91.96;100637.88;5050787;28;20377;-72
2021/07/14 04:59:59;;;;;;;32.40;22.67;;;;;;;19.35;92.78;100632.44;5068760;28;20032;-72
2021/07/14 05:02:24;;;;;;;30.03;21.60;;;;;;;19.45;92.65;100611.09;5069726;28;20190;-72
2021/07/14 05:04:50;;;;;;;31.97;24.27;;;;;;;19.50;92.39;100605.00;5069664;28;20048;-72
2021/07/14 05:07:15;;;;;;;33.80;24.40;;;;;;;19.49;92.37;100600.66;5068564;28;20040;-72
2021/07/14 05:09:40;;;;;;;32.73;22.20;;;;;;;19.43;92.22;100596.13;5068737;28;20137;-72
2021/07/14 05:12:06;;;;;;;26.60;21.57;;;;;;;19.49;92.28;100600.66;5068215;28;20591;-72
2021/07/14 05:14:31;;;;;;;33.27;23.13;;;;;;;19.48;92.43;100601.69;5068241;28;20400;-72
2021/07/14 05:16:56;;;;;;;29.33;21.73;;;;;;;19.51;92.51;100603.97;5050484;28;20049;-72
2021/07/14 05:19:22;;;;;;;32.60;24.13;;;;;;;19.45;92.42;100623.81;5067591;28;20036;-72
2021/07/14 05:21:47;;;;;;;30.53;24.50;;;;;;;19.55;92.12;100605.16;5067477;28;20028;-72
2021/07/14 05:24:12;;;;;;;29.47;22.97;;;;;;;19.55;92.36;100611.41;5067137;28;20036;-72
2021/07/14 05:26:39;;;;;;;33.63;22.53;;;;;;;19.62;91.93;100622.19;5066995;28;20047;-72
2021/07/14 05:29:05;;;;;;;29.02;23.40;;;;;;;19.65;92.14;100610.91;5069417;28;20385;-72
2021/07/14 05:31:30;;;;;;;28.83;21.70;;;;;;;19.72;91.87;100624.41;5068032;28;20366;-72
2021/07/14 05:33:56;;;;;;;29.27;23.45;;;;;;;19.63;91.85;100629.25;5068766;28;20066;-72
2021/07/14 05:36:21;;;;;;;30.25;22.75;;;;;;;19.71;91.94;100626.25;5068975;28;20036;-72
2021/07/14 05:38:47;;;;;;;30.40;22.07;;;;;;;19.72;92.03;100619.81;5069426;28;20052;-72
2021/07/14 05:41:12;;;;;;;29.93;21.70;;;;;;;19.74;92.43;100615.00;5069235;28;20037;-72
2021/07/14 05:43:38;;;;;;;32.00;25.63;;;;;;;19.73;92.11;100613.31;5069478;28;20074;-72
2021/07/14 05:46:04;;;;;;;;;;;;;;;19.69;92.77;100625.69;5068197;28;20104;-72
2021/07/14 05:48:29;;;;;;;;;;;;;;;19.74;92.67;100625.00;5052208;28;20022;-72
2021/07/14 05:50:56;;;;;;;40.07;28.83;;;;;;;19.71;92.95;100615.41;5055191;28;19931;-72
2021/07/14 05:53:22;;;;;;;41.55;27.33;;;;;;;19.76;92.73;100612.88;5072268;28;20032;-73
2021/07/14 05:55:48;;;;;;;40.60;28.75;;;;;;;19.74;92.97;100612.28;5071453;28;20119;-72
2021/07/14 05:58:14;;;;;;;33.70;24.27;;;;;;;19.84;93.48;100613.63;5072148;28;20350;-73
2021/07/14 06:00:40;;;;;;;37.85;27.85;;;;;;;19.82;92.66;100622.78;5071863;28;20445;-73
2021/07/14 06:03:06;;;;;;;40.22;29.30;;;;;;;19.74;92.99;100623.13;5055372;28;20078;-73
2021/07/14 06:05:32;;;;;;;39.78;28.63;;;;;;;19.86;93.44;100622.38;5072849;28;20032;-73
2021/07/14 06:07:57;;;;;;;41.15;29.98;;;;;;;19.87;92.92;100618.59;5071737;28;20032;-73
2021/07/14 06:10:23;;;;;;;37.05;27.42;;;;;;;19.96;93.66;100628.88;5071902;28;20029;-73
2021/07/14 06:12:50;;;;;;;35.93;26.97;;;;;;;20.00;93.35;100630.09;5071718;28;20043;-73
2021/07/14 06:15:15;;;;;;;42.55;30.85;;;;;;;20.03;92.83;100631.50;5072792;28;20365;-73
2021/07/14 06:17:41;;;;;;;34.80;26.40;;;;;;;20.20;93.11;100629.81;5072512;28;20028;-72
2021/07/14 06:20:07;;;;;;;33.63;25.50;;;;;;;20.31;93.13;100639.06;5055255;28;20047;-72
2021/07/14 06:22:32;;;;;;;39.00;27.92;;;;;;;20.31;91.99;100644.50;5072621;28;20121;-72
2021/07/14 06:24:58;;;;;;;35.90;27.03;;;;;;;20.24;91.63;100636.44;5054864;28;20475;-73
2021/07/14 06:27:23;;;;;;;32.60;23.97;;;;;;;20.37;92.20;100630.03;5071389;28;20040;-72
2021/07/14 06:29:48;;;;;;;38.53;26.90;;;;;;;20.47;91.01;100625.94;5071773;28;20197;-72
2021/07/14 06:32:14;;;;;;;34.67;24.13;;;;;;;20.58;91.82;100631.44;5071595;28;20037;-73
2021/07/14 06:34:39;;;;;;;39.10;28.50;;;;;;;20.66;92.00;100627.53;5071605;28;20037;-72
2021/07/14 06:37:04;;;;;;;34.53;24.57;;;;;;;20.54;90.82;100613.94;5071244;28;20053;-73
2021/07/14 06:39:30;;;;;;;34.30;25.40;;;;;;;20.63;90.59;100623.41;5072222;28;20036;-73
2021/07/14 06:41:56;;;;;;;29.30;21.93;;;;;;;20.72;90.10;100623.06;5071536;28;20052;-72
2021/07/14 06:44:22;;;;;;;27.45;21.75;;;;;;;20.78;87.96;100624.84;5070519;28;20077;-75
2021/07/14 06:46:47;;;;;;;31.95;24.10;;;;;;;20.85;89.80;100625.56;5071615;28;20119;-75
2021/07/14 06:49:12;;;;;;;28.93;23.33;;;;;;;20.88;89.01;100614.25;5071069;28;20590;-75
2021/07/14 06:51:38;;;;;;;26.67;22.10;;;;;;;21.01;90.15;100616.75;5070795;28;20390;-75
2021/07/14 06:54:03;;;;;;;29.20;22.20;;;;;;;21.13;88.32;100613.22;5070737;28;20175;-75
2021/07/14 06:56:28;;;;;;;28.43;20.63;;;;;;;21.20;88.38;100605.78;5071468;28;20039;-75
2021/07/14 06:58:54;;;;;;;30.07;21.80;;;;;;;21.18;88.52;100595.16;5071604;28;20075;-75
2021/07/14 07:01:20;;;;;;;29.97;20.57;;;;;;;21.31;88.08;100588.66;5070664;28;20123;-75
2021/07/14 07:03:46;;;;;;;24.65;20.67;;;;;;;21.40;87.29;100584.56;5070913;28;20480;-75
2021/07/14 07:06:12;;;;;;;;;;;;;;;21.80;85.78;100596.53;5071825;28;20032;-75
2021/07/14 07:08:37;;;;;;;25.35;18.38;;;;;;;21.94;84.92;100589.75;5071539;28;20290;-75
2021/07/14 07:11:04;;;;;;;24.98;19.05;;;;;;;22.02;84.07;100596.69;5070733;28;20024;-75
2021/07/14 07:13:29;;;;;;;;;;;;;;;22.54;82.35;100589.25;5070851;28;20425;-75
2021/07/14 07:15:55;;;;;;;27.65;16.83;;;;;;;23.36;78.49;100576.09;5071087;28;19921;-75
2021/07/14 07:18:21;;;;;;;21.60;17.05;;;;;;;23.60;77.15;100579.44;5070789;28;20115;-76
2021/07/14 07:20:48;;;;;;;24.63;15.85;;;;;;;24.02;75.71;100574.25;5070817;28;20032;-76
2021/07/14 07:23:13;;;;;;;22.88;16.30;;;;;;;24.17;74.65;100572.75;5071568;28;20421;-75
2021/07/14 07:25:39;;;;;;;19.60;15.33;;;;;;;24.18;73.45;100575.22;5071277;28;20048;-75
2021/07/14 07:28:11;;;;;;;16.05;14.18;;;;;;;24.40;73.65;100577.91;5069916;28;20041;-75
2021/07/14 07:30:37;;;;;;;22.08;16.02;;;;;;;23.97;74.56;100573.34;5069860;28;20033;-76
2021/07/14 07:33:02;;;;;;;18.97;14.37;;;;;;;24.06;75.21;100568.28;5068926;28;20127;-76
2021/07/14 07:35:27;;;;;;;22.50;15.37;;;;;;;24.26;73.94;100559.50;5068646;28;20016;-76
2021/07/14 07:37:53;;;;;;;17.37;14.60;;;;;;;24.54;72.66;100567.41;5068650;28;20292;-75
2021/07/14 07:40:18;;;;;;;21.97;14.33;;;;;;;24.74;73.27;100572.19;5068856;28;20111;-76
2021/07/14 07:42:43;;;;;;;21.23;14.70;;;;;;;25.04;71.13;100568.06;5068663;28;20032;-75
2021/07/14 07:45:09;;;;;;;15.57;12.00;;;;;;;25.27;70.70;100564.94;5069875;28;20170;-76
2021/07/14 07:47:35;;;;;;;15.18;13.50;;;;;;;25.42;69.02;100564.19;5071056;28;20036;-76
2021/07/14 07:50:01;;;;;;;15.02;11.48;;;;;;;25.10;71.31;100557.97;5070281;28;20580;-76
2021/07/14 07:52:28;;;;;;;12.20;10.77;;;;;;;25.67;69.43;100549.81;5070133;28;20093;-76
2021/07/14 07:54:55;;;;;;;17.17;11.32;;;;;;;25.97;68.56;100550.25;5069909;28;20108;-76
2021/07/14 07:57:21;;;;;;;13.02;11.00;;;;;;;26.08;67.82;100543.66;5070939;28;20051;-75
2021/07/14 07:59:46;;;;;;;15.30;11.30;;;;;;;26.26;66.97;100551.38;5070950;28;20036;-76
2021/07/14 08:02:12;;;;;;;15.60;12.47;;;;;;;26.24;67.04;100539.88;5070947;28;20040;-76
2021/07/14 08:04:37;;;;;;;15.02;11.85;;;;;;;26.43;65.64;100548.34;5053163;28;20028;-76
2021/07/14 08:07:03;;;;;;;11.83;10.63;;;;;;;26.32;65.62;100557.69;5053104;28;20040;-75
2021/07/14 08:09:28;;;;;;;15.95;11.75;;;;;;;26.40;65.93;100548.09;5069828;28;20301;-76
2021/07/14 08:11:54;;;;;;;12.70;9.90;;;;;;;26.30;66.08;100541.53;5070317;28;20052;-76
2021/07/14 08:14:19;;;;;;;13.63;10.85;;;;;;;26.45;65.80;100551.66;5069382;28;20070;-76
2021/07/14 08:16:46;;;;;;;20.42;12.60;;;;;;;26.41;64.79;100556.06;5052717;28;20033;-76
2021/07/14 08:19:11;;;;;;;13.00;11.32;;;;;;;26.62;65.10;100551.44;5070673;28;20127;-76
2021/07/14 08:21:37;;;;;;;17.48;10.65;;;;;;;26.45;65.21;100557.13;5052675;28;20500;-76
2021/07/14 08:24:03;;;;;;;12.60;10.88;;;;;;;26.35;65.76;100554.38;5070503;28;20028;-76
2021/07/14 08:26:28;;;;;;;14.30;11.00;;;;;;;26.59;65.30;100551.97;5069139;28;20460;-76
2021/07/14 08:28:54;;;;;;;14.07;11.27;;;;;;;27.03;63.62;100556.84;5070440;28;20035;-76
2021/07/14 08:31:20;;;;;;;13.52;11.55;;;;;;;26.56;64.47;100555.25;5069481;28;20037;-76
2021/07/14 08:33:45;;;;;;;15.73;12.38;;;;;;;26.81;64.94;100548.09;5069426;28;20047;-76
2021/07/14 08:36:11;;;;;;;14.63;12.17;;;;;;;26.54;64.92;100554.69;5069962;28;20392;-76
2021/07/14 08:38:36;;;;;;;12.55;11.10;;;;;;;27.02;63.83;100548.91;5069510;28;20032;-76
2021/07/14 08:41:04;;;;;;;14.73;11.05;;;;;;;27.43;62.95;100551.56;5068722;28;20543;-76
2021/07/14 08:43:33;;;;;;;16.83;12.93;;;;;;;27.58;61.08;100552.34;5052696;28;20024;-76
2021/07/14 08:45:59;;;;;;;17.73;10.75;;;;;;;27.56;61.78;100545.50;5068620;28;20036;-76
2021/07/14 08:48:25;;;;;;;15.50;10.73;;;;;;;27.46;61.80;100534.56;5070375;28;20090;-76
2021/07/14 08:50:52;;;;;;;17.52;11.60;;;;;;;27.72;60.60;100530.59;5069114;28;20385;-76
2021/07/14 08:53:20;;;;;;;14.05;12.02;;;;;;;28.02;60.06;100537.03;5052465;28;20127;-76
2021/07/14 08:55:47;;;;;;;12.48;11.23;;;;;;;27.91;60.02;100532.69;5069697;28;20177;-76
2021/07/14 08:58:18;;;;;;;22.77;11.90;;;;;;;27.84;60.63;100537.69;5070114;28;20107;-76
2021/07/14 09:00:45;;;;;;;12.55;10.77;;;;;;;27.75;60.62;100529.22;5069109;28;20040;-76
2021/07/14 09:03:10;;;;;;;20.15;11.05;;;;;;;27.71;60.37;100539.91;5069055;28;20037;-76
2021/07/14 09:05:36;;;;;;;19.88;11.90;;;;;;;27.65;61.21;100535.59;5068739;28;20024;-76
2021/07/14 09:08:02;;;;;;;13.45;10.98;;;;;;;28.11;59.71;124360.91;5069749;28;20041;-76
2021/07/14 09:10:27;;;;;;;12.82;9.98;;;;;;;28.15;59.89;100514.44;5070150;28;20048;-76
2021/07/14 09:12:57;;;;;;;17.05;12.20;;;;;;;27.86;61.29;100524.50;5068967;28;20093;-76
2021/07/14 09:15:26;;;;;;;13.55;10.77;;;;;;;28.37;59.59;100522.22;5069858;28;20051;-76
2021/07/14 09:17:57;;;;;;;14.90;10.73;;;;;;;28.75;58.75;100518.91;5068496;28;20040;-77
2021/07/14 09:20:26;;;;;;;16.23;10.75;;;;;;;28.90;57.73;100517.94;5069011;28;20048;-76
2021/07/14 09:23:04;;;;;;;10.30;9.30;;;;;;;29.32;57.04;100522.72;5069495;28;20454;-76
2021/07/14 09:25:37;;;;;;;11.20;9.43;;;;;;;28.97;56.97;100524.72;5071593;28;20783;-76
2021/07/14 09:28:04;;;;;;;14.15;10.00;;;;;;;29.13;56.93;100522.66;5073747;28;20033;-76
2021/07/14 09:30:30;;;;;;;12.60;10.90;;;;;;;28.61;56.38;100518.75;5073102;28;20032;-76
2021/07/14 09:32:58;;;;;;;14.05;10.20;;;;;;;28.41;58.29;100525.22;5056062;28;20449;-76
2021/07/14 09:35:44;;;;;;;14.55;9.57;;;;;;;29.07;56.80;100521.06;5072879;28;20043;-76
2021/07/14 09:38:20;;;;;;;12.48;10.73;;;;;;;28.53;57.32;100522.13;5056151;28;20056;-76
2021/07/14 09:40:49;;;;;;;18.58;11.38;;;;;;;28.30;57.84;100519.00;5072923;28;20044;-76
2021/07/14 09:43:19;;;;;;;13.32;10.18;;;;;;;28.65;57.75;100505.28;5055997;28;20024;-76
2021/07/14 09:45:56;;;;;;;11.80;9.73;;;;;;;29.41;56.21;100520.97;5072234;28;20036;-77
2021/07/14 09:48:29;;;;;;;16.80;11.05;;;;;;;29.67;55.54;100512.41;5073483;28;20111;-76
2021/07/14 09:51:00;;;;;;;11.63;9.15;;;;;;;29.94;56.29;100525.50;5055804;28;20454;-76
2021/07/14 09:53:28;;;;;;;11.20;9.85;;;;;;;30.00;54.10;100540.00;5073371;28;20127;-76
2021/07/14 09:55:59;;;;;;;14.43;10.45;;;;;;;29.33;55.24;100540.03;5072984;28;20099;-76
2021/07/14 09:58:30;;;;;;;13.25;9.60;;;;;;;28.90;56.66;100548.16;5072253;28;20037;-76
2021/07/14 10:01:02;;;;;;;12.25;9.45;;;;;;;28.74;57.39;100540.06;5072470;28;20040;-76
2021/07/14 10:03:46;;;;;;;12.02;9.10;;;;;;;29.30;56.72;100544.19;5072877;28;20040;-76
2021/07/14 10:06:15;;;;;;;10.88;9.50;;;;;;;28.77;58.56;100547.72;5071770;28;20036;-76
2021/07/14 10:08:43;;;;;;;11.82;10.15;;;;;;;29.14;57.64;100557.28;5073105;28;20032;-75
2021/07/14 10:11:16;;;;;;;12.13;9.45;;;;;;;29.86;56.53;100556.44;5072156;28;20050;-75
2021/07/14 10:14:06;;;;;;;9.43;8.50;;;;;;;29.91;54.97;100558.31;5072820;28;20041;-75
2021/07/14 10:16:37;;;;;;;10.95;8.60;;;;;;;30.44;53.25;100541.56;5061958;28;20620;-75
2021/07/14 10:19:09;;;;;;;14.05;10.30;;;;;;;30.33;53.64;100531.81;5071997;28;20041;-75
2021/07/14 10:21:42;;;;;;;11.00;9.38;;;;;;;30.62;53.42;100532.41;5072807;28;20036;-75
2021/07/14 10:24:12;;;;;;;13.75;9.52;;;;;;;30.25;53.17;100534.13;5072599;28;20033;-75
2021/07/14 10:26:40;;;;;;;12.05;9.70;;;;;;;30.20;54.26;100550.69;5071638;28;20055;-75
2021/07/14 10:29:07;;;;;;;11.73;10.40;;;;;;;30.67;53.72;100543.38;5072795;28;20028;-75
2021/07/14 10:31:34;;;;;;;10.80;8.07;;;;;;;31.01;52.39;100542.22;5071666;28;20411;-75
2021/07/14 10:33:59;;;;;;;12.23;9.80;;;;;;;31.26;51.52;100537.34;5054819;28;20040;-75
2021/07/14 10:36:29;;;;;;;;;;;;;;;31.00;52.67;100548.03;5072949;28;20047;-75
2021/07/14 10:39:08;;;;;;;13.90;9.07;;;;;;;30.95;52.21;100540.66;5072274;28;19920;-76
2021/07/14 10:41:34;;;;;;;12.18;9.15;;;;;;;31.48;51.19;100537.44;5071862;28;20041;-74
2021/07/14 10:44:00;;;;;;;;;;;;;;;31.74;51.75;100534.94;5071853;28;20040;-75
2021/07/14 10:46:28;;;;;;;10.25;9.20;;;;;;;32.07;49.78;100537.53;5054435;28;19927;-75
2021/07/14 10:48:55;;;;;;;12.38;9.18;;;;;;;31.69;50.34;100537.81;5072138;28;20051;-75
2021/07/14 10:51:22;;;;;;;13.38;9.93;;;;;;;30.88;48.15;100535.59;5054864;28;20097;-75
2021/07/14 10:53:57;;;;;;;10.70;9.70;;;;;;;30.17;50.97;100548.53;5054469;28;20032;-74
2021/07/14 10:56:23;;;;;;;14.98;10.73;;;;;;;30.11;49.12;100562.69;5070995;28;20044;-74
2021/07/14 10:58:51;;;;;;;11.52;10.32;;;;;;;30.46;48.44;100556.66;5071185;28;20048;-74
2021/07/14 11:01:39;;;;;;;14.55;10.52;;;;;;;30.10;49.02;100570.13;5071993;28;20044;-73
2021/07/14 11:04:04;;;;;;;10.32;9.32;;;;;;;30.16;49.00;100566.19;5070936;28;20055;-74
2021/07/14 11:06:30;;;;;;;10.88;9.40;;;;;;;29.42;31.54;100571.25;5070818;28;20373;-74
2021/07/14 11:08:56;;;;;;;11.30;10.30;;;;;;;30.76;49.36;100575.72;5071959;28;20119;-74
2021/07/14 11:11:23;;;;;;;10.15;9.18;;;;;;;31.21;46.42;100581.53;5071090;28;20055;-74
2021/07/14 11:14:04;;;;;;;12.48;10.00;;;;;;;29.97;48.25;100579.09;5071657;28;20473;-74
2021/07/14 11:16:33;;;;;;;12.48;9.75;;;;;;;29.44;48.42;105615.34;5071580;28;20040;-73
2021/07/14 11:19:17;;;;;;;11.35;10.25;;;;;;;30.02;49.33;100584.56;5070789;28;20032;-73
2021/07/14 11:21:57;;;;;;;11.23;9.93;;;;;;;30.03;47.99;100570.50;5070805;28;20373;-75
2021/07/14 11:25:03;;;;;;;11.25;9.13;;;;;;;29.02;50.48;100573.31;5070299;28;20470;-74